Time;durP1;ratioP1;P1;durP2;ratioP2;P2;SDS_P1;SDS_P2;PMS_P1;PMS_P2;Temp;Humidity;BMP_temperature;BMP_pressure;BME280_temperature;BME280_humidity;BME280_pressure;Samples;Min_cycle;Max_cycle;Signal;HPM_P1;HPM_P2
2020/12/05 00:02:13;;;;;;;64.18;28.88;;;2.90;75.80;;;;;;5056677;28;20047;-71
2020/12/05 00:04:38;;;;;;;68.63;28.33;;;2.90;75.90;;;;;;5056411;28;20017;-72
2020/12/05 00:07:04;;;;;;;68.78;29.23;;;2.80;76.30;;;;;;5056483;28;20381;-71
2020/12/05 00:09:30;;;;;;;64.70;28.88;;;2.90;76.30;;;;;;5056517;28;20025;-72
2020/12/05 00:11:56;;;;;;;72.32;29.73;;;2.90;76.10;;;;;;5056472;28;20113;-72
2020/12/05 00:14:21;;;;;;;73.65;30.27;;;2.90;76.10;;;;;;5056441;28;20040;-71
2020/12/05 00:16:51;;;;;;;69.15;28.52;;;2.90;75.90;;;;;;5056310;28;20033;-72
2020/12/05 00:19:17;;;;;;;74.75;28.73;;;2.80;76.30;;;;;;5056349;28;20025;-71
2020/12/05 00:21:43;;;;;;;74.25;29.30;;;2.90;76.10;;;;;;5056510;28;20091;-70
2020/12/05 00:24:08;;;;;;;62.90;27.13;;;2.90;75.60;;;;;;5056027;28;20024;-71
2020/12/05 00:26:34;;;;;;;66.65;28.75;;;2.70;75.90;;;;;;5054220;28;20017;-71
2020/12/05 00:29:00;;;;;;;69.90;30.00;;;2.70;76.30;;;;;;5055868;28;20044;-70
2020/12/05 00:31:26;;;;;;;73.10;29.63;;;2.70;76.00;;;;;;5056640;28;20102;-71
2020/12/05 00:33:52;;;;;;;70.95;28.52;;;2.70;76.20;;;;;;5055856;28;20505;-72
2020/12/05 00:36:18;;;;;;;74.45;31.05;;;2.70;76.00;;;;;;5056059;28;20107;-71
2020/12/05 00:38:44;;;;;;;75.63;30.50;;;2.60;76.00;;;;;;5056056;28;20025;-71
2020/12/05 00:41:11;;;;;;;75.03;29.13;;;2.70;76.50;;;;;;5055577;28;20028;-72
2020/12/05 00:43:37;;;;;;;76.82;29.58;;;2.70;76.40;;;;;;5056132;28;20111;-70
2020/12/05 00:50:01;;;;;;;73.72;27.90;;;2.60;76.10;;;;;;5055591;28;20481;-70
2020/12/05 00:52:27;;;;;;;77.78;29.50;;;2.60;75.80;;;;;;5055341;28;20033;-71
2020/12/05 00:54:52;;;;;;;75.53;28.48;;;2.50;76.00;;;;;;5055979;28;20036;-71
2020/12/05 00:57:18;;;;;;;86.43;31.13;;;2.50;76.30;;;;;;5045672;28;20100;-72
2020/12/05 00:59:44;;;;;;;84.88;31.35;;;2.50;76.60;;;;;;5044811;28;20024;-71
2020/12/05 01:02:10;;;;;;;91.07;32.78;;;2.60;77.00;;;;;;5044577;28;20025;-72
2020/12/05 01:04:35;;;;;;;96.63;32.50;;;2.70;77.10;;;;;;5044405;28;20061;-70
2020/12/05 01:07:01;;;;;;;84.07;29.88;;;2.70;76.70;;;;;;5042686;28;20020;-71
2020/12/05 01:09:27;;;;;;;84.15;30.55;;;2.70;76.60;;;;;;5045149;28;20017;-71
2020/12/05 01:11:52;;;;;;;85.18;31.60;;;2.70;76.60;;;;;;5043913;28;20093;-71
2020/12/05 01:14:18;;;;;;;96.20;32.10;;;2.70;76.40;;;;;;5043327;28;20467;-70
2020/12/05 01:16:46;;;;;;;89.45;31.98;;;2.70;76.30;;;;;;5045526;28;20032;-71
2020/12/05 01:19:12;;;;;;;98.93;34.67;;;2.60;75.70;;;;;;5043711;28;20105;-71
2020/12/05 01:21:38;;;;;;;93.43;33.63;;;2.60;76.00;;;;;;5042855;28;20556;-72
2020/12/05 01:24:03;;;;;;;100.70;32.65;;;2.60;75.90;;;;;;5044661;28;20024;-71
2020/12/05 01:26:29;;;;;;;107.65;34.38;;;2.50;76.10;;;;;;5043085;28;20124;-71
2020/12/05 01:28:55;;;;;;;109.72;36.38;;;2.50;76.40;;;;;;5043192;28;20017;-71
2020/12/05 01:31:20;;;;;;;92.97;34.95;;;2.50;76.60;;;;;;5042724;28;20050;-72
2020/12/05 01:33:46;;;;;;;107.90;35.38;;;2.50;76.40;;;;;;5039500;28;20040;-71
2020/12/05 01:36:12;;;;;;;111.63;36.38;;;2.50;76.80;;;;;;5043663;28;20029;-71
2020/12/05 01:38:38;;;;;;;116.65;38.78;;;2.60;77.00;;;;;;5042757;28;20022;-71
2020/12/05 01:41:04;;;;;;;113.47;35.80;;;2.60;77.10;;;;;;5044485;28;20023;-72
2020/12/05 01:43:31;;;;;;;108.93;36.65;;;2.70;77.30;;;;;;5043250;28;20108;-71
2020/12/05 01:46:03;;;;;;;131.48;39.40;;;2.80;77.10;;;;;;5042980;28;20021;-71
2020/12/05 01:48:29;;;;;;;127.68;39.80;;;2.80;77.00;;;;;;5044294;28;20112;-72
2020/12/05 01:50:55;;;;;;;109.45;36.08;;;2.80;76.90;;;;;;5039175;28;20067;-71
2020/12/05 01:53:21;;;;;;;118.60;37.70;;;2.90;76.60;;;;;;5034431;28;20029;-71
2020/12/05 01:55:48;;;;;;;128.75;39.22;;;2.90;76.20;;;;;;5034504;28;20462;-71
2020/12/05 01:58:14;;;;;;;137.15;41.72;;;2.80;76.30;;;;;;5034504;28;20036;-71
2020/12/05 02:00:40;;;;;;;120.97;39.67;;;2.80;76.20;;;;;;5034397;28;20077;-71
2020/12/05 02:03:07;;;;;;;150.35;40.63;;;2.80;76.30;;;;;;5034482;28;20055;-71
2020/12/05 02:05:47;;;;;;;133.48;38.95;;;2.80;76.10;;;;;;5034506;28;20076;-72
2020/12/05 02:08:18;;;;;;;120.20;39.13;;;2.70;76.10;;;;;;5034297;28;20029;-71
2020/12/05 02:10:49;;;;;;;137.35;41.40;;;2.70;76.40;;;;;;5034371;28;20025;-71
2020/12/05 02:13:43;;;;;;;139.43;41.78;;;2.70;76.70;;;;;;5033022;28;20026;-71
2020/12/05 02:16:09;;;;;;;117.00;38.17;;;2.70;76.40;;;;;;5032607;28;20469;-71
2020/12/05 02:18:36;;;;;;;122.32;38.20;;;2.60;77.00;;;;;;5034623;28;20026;-71
2020/12/05 02:21:05;;;;;;;123.20;38.42;;;2.60;76.60;;;;;;5033759;28;20092;-70
2020/12/05 02:23:31;;;;;;;139.98;39.45;;;2.70;76.90;;;;;;5034170;28;20369;-71
2020/12/05 02:26:03;;;;;;;142.55;39.80;;;2.70;76.90;;;;;;5033976;28;20022;-71
2020/12/05 02:28:29;;;;;;;146.38;40.33;;;2.70;76.30;;;;;;5034481;28;20025;-70
2020/12/05 02:30:55;;;;;;;147.25;44.17;;;2.60;76.60;;;;;;5033618;28;20128;-72
2020/12/05 02:33:21;;;;;;;129.77;38.97;;;2.70;77.20;;;;;;5033621;28;20521;-71
2020/12/05 02:35:47;;;;;;;124.70;37.78;;;2.70;77.50;;;;;;5034226;28;20033;-71
2020/12/05 02:38:22;;;;;;;150.32;39.05;;;2.80;77.10;;;;;;5034417;28;20032;-71
2020/12/05 02:40:48;;;;;;;130.13;35.33;;;2.80;76.70;;;;;;5034141;28;20032;-71
2020/12/05 02:43:14;;;;;;;130.60;37.28;;;2.70;76.40;;;;;;5033503;28;20021;-71
2020/12/05 02:45:40;;;;;;;138.40;38.53;;;2.80;76.50;;;;;;5033916;28;20028;-71
2020/12/05 02:48:09;;;;;;;131.05;39.25;;;2.70;76.10;;;;;;5032570;28;20072;-71
2020/12/05 02:50:35;;;;;;;132.73;37.72;;;2.70;76.40;;;;;;5033377;28;20025;-70
2020/12/05 02:53:01;;;;;;;140.77;38.38;;;2.70;77.00;;;;;;5033245;28;20029;-71
2020/12/05 02:55:27;;;;;;;139.65;40.85;;;2.70;76.80;;;;;;5033688;28;20034;-71
2020/12/05 02:57:53;;;;;;;137.27;39.75;;;2.80;77.10;;;;;;5033481;28;20032;-74
2020/12/05 03:00:19;;;;;;;152.10;40.55;;;2.80;77.00;;;;;;5032110;28;20026;-71
2020/12/05 03:02:44;;;;;;;171.80;38.50;;;2.90;77.00;;;;;;5033825;28;20036;-72
2020/12/05 03:05:10;;;;;;;158.38;39.47;;;2.90;76.90;;;;;;5033262;28;20365;-71
2020/12/05 03:07:36;;;;;;;166.23;40.90;;;2.90;76.90;;;;;;5033526;28;20086;-71
2020/12/05 03:10:02;;;;;;;148.85;41.40;;;2.90;77.10;;;;;;5033597;28;20029;-72
2020/12/05 03:12:28;;;;;;;165.98;40.58;;;3.00;77.10;;;;;;5033093;28;20028;-70
2020/12/05 03:14:54;;;;;;;173.70;40.90;;;3.00;76.40;;;;;;5032165;28;20021;-71
2020/12/05 03:17:19;;;;;;;151.55;40.58;;;3.00;76.10;;;;;;5033584;28;20053;-70
2020/12/05 03:19:45;;;;;;;164.82;41.38;;;3.00;76.50;;;;;;5033438;28;20032;-70
2020/12/05 03:22:11;;;;;;;178.50;44.25;;;3.00;76.70;;;;;;5031963;28;20021;-71
2020/12/05 03:24:36;;;;;;;174.85;41.03;;;3.00;76.30;;;;;;5033454;28;20036;-71
2020/12/05 03:27:02;;;;;;;151.05;39.63;;;3.00;76.10;;;;;;5033312;28;20018;-71
2020/12/05 03:29:28;;;;;;;164.55;42.33;;;2.90;76.20;;;;;;5033030;28;20342;-70
2020/12/05 03:32:09;;;;;;;174.50;45.47;;;3.00;76.30;;;;;;5033299;28;20029;-71
2020/12/05 03:34:34;;;;;;;136.95;39.42;;;2.90;76.40;;;;;;5031912;28;20021;-71
2020/12/05 03:37:00;;;;;;;155.02;39.97;;;2.90;76.50;;;;;;5033158;28;20025;-71
2020/12/05 03:39:26;;;;;;;185.63;41.17;;;2.90;77.10;;;;;;5033091;28;20025;-71
2020/12/05 03:41:51;;;;;;;165.27;38.85;;;3.00;77.00;;;;;;5033288;28;20018;-71
2020/12/05 03:44:17;;;;;;;177.23;42.88;;;3.00;76.50;;;;;;5033426;28;20449;-71
2020/12/05 03:46:42;;;;;;;192.80;40.75;;;3.00;76.70;;;;;;5045553;28;20346;-71
2020/12/05 03:49:08;;;;;;;151.15;36.25;;;2.90;76.70;;;;;;5032602;28;20457;-71
2020/12/05 03:51:34;;;;;;;162.85;40.60;;;2.90;76.50;;;;;;5033161;28;20341;-70
2020/12/05 03:53:59;;;;;;;147.93;36.03;;;2.90;76.50;;;;;;5032596;28;20029;-71
2020/12/05 03:56:25;;;;;;;144.77;38.00;;;2.90;76.70;;;;;;5033943;28;20060;-72
2020/12/05 03:58:53;;;;;;;144.48;37.83;;;3.00;76.90;;;;;;5032992;28;20030;-71
2020/12/05 04:01:18;;;;;;;151.48;38.67;;;3.00;77.00;;;;;;5035465;28;20021;-70
2020/12/05 04:03:44;;;;;;;155.45;38.70;;;3.00;76.90;;;;;;5033498;28;20033;-71
2020/12/05 04:06:12;;;;;;;140.65;37.08;;;3.00;77.10;;;;;;5032840;28;20044;-71
2020/12/05 04:08:40;;;;;;;168.23;39.13;;;3.10;76.90;;;;;;5032923;28;20029;-71
2020/12/05 04:11:06;;;;;;;159.52;39.90;;;3.10;77.50;;;;;;5032884;28;20112;-71
2020/12/05 04:13:32;;;;;;;146.45;38.30;;;3.10;76.60;;;;;;5031806;28;20025;-70
2020/12/05 04:15:58;;;;;;;167.82;40.72;;;3.10;76.90;;;;;;5035482;28;20104;-71
2020/12/05 04:18:24;;;;;;;168.65;40.05;;;3.10;77.20;;;;;;5036534;28;20079;-69
2020/12/05 04:20:49;;;;;;;156.30;41.58;;;3.10;76.80;;;;;;5036144;28;20022;-71
2020/12/05 04:23:15;;;;;;;159.05;41.88;;;3.10;76.50;;;;;;5036309;28;20021;-70
2020/12/05 04:25:41;;;;;;;167.88;42.85;;;3.10;76.50;;;;;;5036403;28;20393;-71
2020/12/05 04:28:07;;;;;;;185.98;44.03;;;3.10;76.60;;;;;;5036372;28;20026;-71
2020/12/05 04:30:32;;;;;;;168.55;44.40;;;3.10;76.90;;;;;;5035089;28;20428;-71
2020/12/05 04:32:58;;;;;;;164.13;44.17;;;3.10;77.10;;;;;;5036183;28;20370;-71
2020/12/05 04:35:24;;;;;;;169.32;44.88;;;3.20;77.20;;;;;;5036181;28;20025;-70
2020/12/05 04:37:49;;;;;;;194.52;44.35;;;3.20;77.00;;;;;;5034851;28;20076;-72
2020/12/05 04:40:15;;;;;;;163.35;45.42;;;3.20;76.70;;;;;;5036326;28;20055;-71
2020/12/05 04:42:48;;;;;;;191.50;43.58;;;3.20;76.90;;;;;;5034866;28;20021;-72
2020/12/05 04:45:15;;;;;;;193.80;43.40;;;3.20;76.90;;;;;;5036170;28;20048;-70
2020/12/05 04:47:42;;;;;;;185.57;44.53;;;3.20;76.50;;;;;;5036039;28;20017;-70
2020/12/05 04:50:09;;;;;;;159.88;41.03;;;3.20;76.30;;;;;;5035854;28;20025;-71
2020/12/05 04:52:46;;;;;;;145.82;41.17;;;3.10;76.60;;;;;;5035638;28;20022;-71
2020/12/05 04:55:14;;;;;;;151.30;41.42;;;3.10;76.40;;;;;;5038406;28;20045;-71
2020/12/05 04:57:46;;;;;;;138.65;39.72;;;3.10;76.30;;;;;;5039537;28;20461;-70
2020/12/05 05:00:12;;;;;;;126.40;39.70;;;3.00;76.50;;;;;;5042412;28;20025;-71
2020/12/05 05:02:42;;;;;;;135.38;40.33;;;3.00;76.90;;;;;;5043144;28;20334;-71
2020/12/05 05:05:14;;;;;;;115.63;36.40;;;3.00;77.30;;;;;;5043787;28;20028;-71
2020/12/05 05:07:51;;;;;;;128.60;38.85;;;3.10;77.20;;;;;;5043528;28;20021;-71
2020/12/05 05:10:29;;;;;;;125.45;35.15;;;3.10;76.90;;;;;;5043021;28;20018;-72
2020/12/05 05:15:41;;;;;;;121.03;36.33;;;3.10;76.70;;;;;;5045881;28;20104;-71
2020/12/05 05:18:08;;;;;;;150.07;35.20;;;3.00;76.30;;;;;;5043739;28;20021;-73
2020/12/05 05:20:43;;;;;;;113.47;35.67;;;3.00;76.60;;;;;;5043679;28;20398;-71
2020/12/05 05:23:11;;;;;;;109.00;34.45;;;2.90;76.40;;;;;;5044387;28;20059;-71
2020/12/05 05:25:50;;;;;;;117.93;37.10;;;2.90;76.70;;;;;;5040327;28;20022;-72
2020/12/05 05:28:24;;;;;;;105.45;35.20;;;2.90;77.20;;;;;;5041699;28;20083;-72
2020/12/05 05:31:43;;;;;;;112.40;35.38;;;2.90;77.40;;;;;;5044355;28;20037;-71
2020/12/05 05:33:55;;;;;;;107.28;35.15;;;2.90;77.10;;;;;;5041923;28;20064;-71
2020/12/05 05:36:27;;;;;;;133.25;38.00;;;2.90;77.10;;;;;;5044398;28;20028;-71
2020/12/05 05:38:57;;;;;;;118.22;36.45;;;2.90;77.50;;;;;;5044280;28;20018;-73
2020/12/05 05:41:22;;;;;;;108.50;36.33;;;3.00;77.30;;;;;;5045447;28;20021;-71
2020/12/05 05:43:57;;;;;;;109.72;33.60;;;3.00;77.10;;;;;;5043276;28;20025;-71
2020/12/05 05:46:43;;;;;;;116.35;36.70;;;3.00;77.10;;;;;;5042579;28;20023;-73
2020/12/05 05:49:12;;;;;;;109.72;36.38;;;3.10;77.50;;;;;;5044237;28;20027;-71
2020/12/05 05:51:38;;;;;;;110.43;35.13;;;3.10;77.30;;;;;;5044146;28;20030;-71
2020/12/05 05:54:20;;;;;;;116.40;37.25;;;3.10;77.00;;;;;;5045475;28;20030;-73
2020/12/05 05:57:13;;;;;;;119.13;36.72;;;3.10;76.70;;;;;;5044980;28;20059;-71
2020/12/05 05:59:44;;;;;;;117.65;37.53;;;3.10;76.60;;;;;;5042558;28;20100;-72
2020/12/05 06:02:21;;;;;;;125.57;39.22;;;3.00;76.60;;;;;;5043676;28;20025;-72
2020/12/05 06:04:47;;;;;;;104.97;37.83;;;2.90;77.00;;;;;;5034768;28;20037;-72
2020/12/05 06:07:17;;;;;;;118.57;40.05;;;2.90;77.40;;;;;;5033984;28;20318;-71
2020/12/05 06:09:55;;;;;;;123.22;40.35;;;3.00;77.20;;;;;;5034709;28;20108;-71
2020/12/05 06:12:29;;;;;;;117.53;38.97;;;3.00;77.50;;;;;;5032867;28;20449;-71
2020/12/05 06:14:55;;;;;;;112.10;38.65;;;3.10;78.10;;;;;;5038666;28;20033;-72
2020/12/05 06:17:22;;;;;;;99.28;35.88;;;3.20;78.20;;;;;;5040718;28;20037;-74
2020/12/05 06:19:51;;;;;;;101.93;36.53;;;3.30;77.90;;;;;;5041822;28;20017;-71
2020/12/05 06:22:41;;;;;;;110.93;37.95;;;3.30;77.50;;;;;;5033686;28;20040;-72
2020/12/05 06:25:11;;;;;;;98.50;37.70;;;3.30;77.10;;;;;;5034113;28;20083;-71
2020/12/05 06:27:46;;;;;;;103.30;36.30;;;3.30;77.30;;;;;;5034183;28;20084;-72
2020/12/05 06:30:13;;;;;;;94.30;34.33;;;3.30;77.40;;;;;;5033664;28;20068;-71
2020/12/05 06:32:41;;;;;;;92.18;32.22;;;3.40;77.00;;;;;;5034218;28;20429;-71
2020/12/05 06:35:19;;;;;;;89.72;32.80;;;3.30;76.70;;;;;;5032484;28;20025;-72
2020/12/05 06:37:45;;;;;;;84.55;32.42;;;3.30;76.60;;;;;;5033305;28;20369;-72
2020/12/05 06:40:11;;;;;;;90.68;35.08;;;3.30;76.60;;;;;;5032594;28;20024;-71
2020/12/05 06:42:42;;;;;;;83.00;32.55;;;3.30;77.00;;;;;;5033838;28;20018;-71
2020/12/05 06:45:28;;;;;;;74.10;28.30;;;3.30;77.40;;;;;;5032498;28;20029;-72
2020/12/05 06:48:14;;;;;;;67.38;28.05;;;3.40;77.50;;;;;;5044648;28;20449;-72
2020/12/05 06:50:42;;;;;;;65.78;27.95;;;3.40;77.00;;;;;;5033273;28;20113;-73
2020/12/05 06:53:29;;;;;;;62.97;25.90;;;3.50;76.90;;;;;;5049572;28;20037;-71
2020/12/05 06:55:55;;;;;;;56.53;26.50;;;3.50;76.70;;;;;;5053511;28;20364;-71
2020/12/05 06:58:31;;;;;;;59.45;26.10;;;3.60;76.80;;;;;;5053816;28;20024;-71
2020/12/05 07:00:57;;;;;;;54.88;24.63;;;3.50;76.30;;;;;;5036784;28;20036;-73
2020/12/05 07:03:27;;;;;;;56.20;23.90;;;3.50;76.40;;;;;;5047171;28;20040;-71
2020/12/05 07:05:53;;;;;;;58.03;24.33;;;3.50;75.90;;;;;;5042688;28;20013;-72
2020/12/05 07:08:25;;;;;;;54.67;25.98;;;3.50;75.20;;;;;;5041377;28;20025;-73
2020/12/05 07:11:25;;;;;;;64.72;28.55;;;3.30;75.00;;;;;;5039417;28;20033;-72
2020/12/05 07:13:52;;;;;;;67.75;30.27;;;3.30;75.50;;;;;;5049043;28;20059;-72
2020/12/05 07:16:18;;;;;;;62.13;27.38;;;3.20;75.40;;;;;;5042973;28;20029;-71
2020/12/05 07:18:47;;;;;;;68.45;30.92;;;3.20;75.70;;;;;;5041243;28;20105;-74
2020/12/05 07:21:13;;;;;;;64.93;28.02;;;3.10;75.80;;;;;;5041959;28;20029;-71
2020/12/05 07:23:39;;;;;;;67.78;29.70;;;3.20;76.40;;;;;;5042868;28;20033;-73
2020/12/05 07:26:06;;;;;;;64.47;27.33;;;3.20;76.50;;;;;;5035520;28;20172;-74
2020/12/05 07:28:32;;;;;;;53.67;25.38;;;3.30;76.40;;;;;;5042317;28;20170;-73
2020/12/05 07:30:58;;;;;;;62.58;27.30;;;3.30;76.30;;;;;;5042512;28;20041;-73
2020/12/05 07:33:24;;;;;;;56.50;26.42;;;3.30;75.90;;;;;;5046603;28;20048;-72
2020/12/05 07:36:05;;;;;;;60.95;27.88;;;3.30;75.60;;;;;;5053220;28;20028;-73
2020/12/05 07:38:33;;;;;;;70.60;28.98;;;3.30;75.50;;;;;;5039348;28;20021;-74
2020/12/05 07:40:59;;;;;;;61.28;27.85;;;3.20;75.60;;;;;;5053190;28;20020;-72
2020/12/05 07:43:25;;;;;;;60.42;28.98;;;3.20;75.50;;;;;;5052364;28;20028;-72
2020/12/05 07:45:52;;;;;;;63.88;27.23;;;3.20;75.30;;;;;;5052693;28;20021;-72
2020/12/05 07:48:20;;;;;;;71.63;30.08;;;3.10;75.40;;;;;;5046451;28;20490;-72
2020/12/05 07:50:47;;;;;;;62.75;25.55;;;3.10;75.50;;;;;;5039754;28;20021;-72
2020/12/05 07:53:24;;;;;;;57.50;25.80;;;3.10;75.50;;;;;;5049264;28;20029;-72
2020/12/05 07:55:50;;;;;;;53.67;25.13;;;3.10;75.70;;;;;;5049655;28;20075;-73
2020/12/05 07:58:16;;;;;;;66.43;28.67;;;3.10;76.00;;;;;;5043401;28;20056;-75
2020/12/05 09:09:31;;;;;;;61.42;28.45;;;3.70;75.10;;;;;;5054802;28;20111;-74
2020/12/05 09:12:08;;;;;;;61.20;29.90;;;3.70;74.90;;;;;;5045722;28;20029;-73
2020/12/05 09:14:35;;;;;;;58.50;28.48;;;3.80;74.90;;;;;;5043286;28;20022;-72
2020/12/05 09:17:01;;;;;;;66.68;31.88;;;3.80;74.00;;;;;;5042027;28;20022;-73
2020/12/05 09:19:28;;;;;;;62.58;30.40;;;3.80;73.80;;;;;;5043813;28;20028;-73
2020/12/05 09:21:55;;;;;;;50.75;23.92;;;3.80;73.90;;;;;;5043083;28;20982;-72
2020/12/05 09:24:21;;;;;;;47.88;22.45;;;3.80;74.10;;;;;;5043772;28;20028;-74
2020/12/05 09:26:55;;;;;;;50.47;23.52;;;3.80;74.00;;;;;;5045801;28;20033;-74
2020/12/05 09:29:21;;;;;;;46.00;20.77;;;3.80;73.60;;;;;;5042915;28;20410;-74
2020/12/05 09:31:52;;;;;;;48.25;21.35;;;3.80;73.80;;;;;;5043355;28;20029;-73
2020/12/05 09:34:38;;;;;;;44.95;21.77;;;3.80;73.60;;;;;;5042830;28;20021;-74
2020/12/05 09:37:13;;;;;;;50.53;22.33;;;3.80;73.50;;;;;;5057722;28;20040;-73
2020/12/05 09:39:42;;;;;;;47.72;22.42;;;3.70;73.60;;;;;;5043373;28;20017;-74
2020/12/05 09:42:20;;;;;;;42.97;21.92;;;3.70;73.50;;;;;;5039407;28;20021;-73
2020/12/05 09:44:46;;;;;;;45.13;22.27;;;3.70;73.70;;;;;;5042861;28;20083;-76
2020/12/05 09:47:11;;;;;;;46.90;22.70;;;3.70;74.20;;;;;;5043056;28;20009;-74
2020/12/05 09:49:37;;;;;;;35.17;19.42;;;3.80;74.30;;;;;;5042792;28;20032;-74
2020/12/05 09:52:03;;;;;;;42.00;21.35;;;3.80;73.90;;;;;;5045040;28;20022;-73
2020/12/05 09:54:28;;;;;;;39.25;20.20;;;3.90;73.40;;;;;;5042565;28;20030;-74
2020/12/05 09:56:54;;;;;;;36.88;18.33;;;3.80;73.30;;;;;;5038886;28;20059;-73
2020/12/05 09:59:20;;;;;;;42.55;20.33;;;3.80;73.20;;;;;;5044617;28;20025;-73
2020/12/05 10:01:46;;;;;;;40.83;19.70;;;3.80;73.50;;;;;;5042341;28;20527;-76
2020/12/05 10:04:15;;;;;;;40.95;20.27;;;3.80;73.20;;;;;;5043705;28;20028;-73
2020/12/05 10:06:41;;;;;;;35.22;18.10;;;3.80;73.40;;;;;;5036923;28;20028;-74
2020/12/05 10:09:07;;;;;;;36.42;19.23;;;3.70;73.10;;;;;;5034383;28;20119;-71
2020/12/05 10:11:32;;;;;;;35.67;17.95;;;3.70;73.20;;;;;;5034624;28;20029;-73
2020/12/05 10:13:58;;;;;;;34.35;17.20;;;3.70;73.60;;;;;;5033522;28;20357;-72
2020/12/05 10:16:24;;;;;;;36.95;17.10;;;3.80;73.60;;;;;;5034341;28;20052;-72
2020/12/05 10:18:49;;;;;;;38.42;17.60;;;3.70;72.70;;;;;;5034300;28;20096;-72
2020/12/05 10:21:15;;;;;;;36.90;18.50;;;3.70;73.10;;;;;;5032957;28;20021;-72
2020/12/05 10:23:41;;;;;;;39.50;18.95;;;3.80;73.60;;;;;;5033884;28;20021;-72
2020/12/05 10:26:08;;;;;;;36.38;18.15;;;3.80;73.10;;;;;;5034329;28;20036;-72
2020/12/05 10:28:33;;;;;;;35.47;17.60;;;3.80;73.00;;;;;;5032735;28;20025;-72
2020/12/05 10:30:59;;;;;;;30.92;16.55;;;3.70;73.20;;;;;;5033062;28;20025;-72
2020/12/05 10:33:24;;;;;;;31.38;16.50;;;3.80;73.10;;;;;;5039178;28;20364;-72
2020/12/05 10:35:50;;;;;;;35.42;17.08;;;3.70;72.90;;;;;;5048073;28;20365;-73
2020/12/05 10:38:16;;;;;;;30.60;15.20;;;3.70;72.60;;;;;;5046926;28;20109;-73
2020/12/05 10:40:41;;;;;;;35.72;16.08;;;3.70;72.90;;;;;;5047710;28;20028;-72
2020/12/05 10:43:07;;;;;;;37.92;16.83;;;3.60;72.40;;;;;;5046920;28;20025;-72
2020/12/05 10:45:34;;;;;;;37.40;17.90;;;3.60;72.50;;;;;;5048777;28;20028;-71
2020/12/05 10:47:59;;;;;;;37.40;17.85;;;3.50;72.60;;;;;;5052606;28;20346;-73
2020/12/05 10:50:25;;;;;;;35.38;17.48;;;3.50;73.00;;;;;;5052998;28;20123;-73
2020/12/05 10:52:50;;;;;;;37.67;17.23;;;3.50;73.20;;;;;;5052376;28;20487;-71
2020/12/05 10:55:16;;;;;;;36.33;16.90;;;3.60;73.10;;;;;;5053514;28;20108;-71
2020/12/05 10:57:42;;;;;;;38.90;19.85;;;3.60;73.10;;;;;;5054151;28;20028;-71
2020/12/05 11:00:07;;;;;;;40.17;21.30;;;3.50;72.50;;;;;;5052386;28;20464;-72
2020/12/05 11:02:33;;;;;;;46.30;20.13;;;3.50;72.50;;;;;;5053653;28;20087;-72
2020/12/05 11:04:59;;;;;;;52.97;25.08;;;3.40;72.90;;;;;;5053639;28;20018;-72
2020/12/05 11:07:24;;;;;;;45.65;22.58;;;3.40;73.00;;;;;;5053064;28;20354;-72
2020/12/05 11:09:50;;;;;;;47.13;22.90;;;3.40;73.10;;;;;;5035768;28;20429;-73
2020/12/05 11:12:16;;;;;;;53.90;24.13;;;3.40;73.00;;;;;;5052916;28;20515;-72
2020/12/05 11:14:42;;;;;;;61.78;26.92;;;3.30;72.90;;;;;;5053646;28;20025;-73
2020/12/05 11:17:08;;;;;;;64.53;27.33;;;3.30;73.20;;;;;;5053115;28;20112;-74
2020/12/05 11:19:34;;;;;;;61.45;25.83;;;3.30;73.40;;;;;;5053589;28;20459;-72
2020/12/05 11:21:59;;;;;;;59.88;26.88;;;3.40;73.60;;;;;;5052049;28;20372;-73
2020/12/05 11:24:25;;;;;;;71.40;29.60;;;3.40;73.60;;;;;;5052417;28;20021;-71
2020/12/05 11:26:50;;;;;;;67.28;28.20;;;3.40;73.20;;;;;;5056025;28;20052;-73
2020/12/05 11:29:16;;;;;;;75.28;27.52;;;3.40;73.30;;;;;;5056259;28;20021;-72
2020/12/05 11:31:42;;;;;;;77.32;32.50;;;3.40;73.40;;;;;;5057441;28;20100;-72
2020/12/05 11:34:07;;;;;;;70.93;26.65;;;3.40;73.20;;;;;;5057227;28;20028;-72
2020/12/05 11:36:33;;;;;;;71.90;26.17;;;3.40;73.20;;;;;;5056106;28;20453;-72
2020/12/05 11:38:59;;;;;;;74.80;30.80;;;3.40;73.20;;;;;;5057796;28;20017;-72
2020/12/05 11:41:24;;;;;;;79.30;28.55;;;3.40;73.20;;;;;;5057384;28;20017;-72
2020/12/05 11:43:50;;;;;;;87.63;33.22;;;3.40;73.40;;;;;;5057322;28;20020;-72
2020/12/05 11:46:15;;;;;;;85.13;32.60;;;3.40;73.10;;;;;;5057340;28;20025;-71
2020/12/05 11:48:41;;;;;;;82.35;30.98;;;3.50;73.20;;;;;;5057081;28;20020;-71
2020/12/05 11:51:07;;;;;;;86.65;31.15;;;3.50;73.20;;;;;;5057645;28;20057;-73
2020/12/05 11:53:33;;;;;;;81.55;31.98;;;3.40;73.30;;;;;;5056462;28;20021;-73
2020/12/05 11:55:59;;;;;;;83.85;29.75;;;3.50;73.40;;;;;;5056729;28;20032;-73
2020/12/05 11:58:24;;;;;;;82.43;30.52;;;3.40;73.20;;;;;;5055592;28;20067;-72
2020/12/05 12:00:50;;;;;;;75.85;28.83;;;3.40;73.20;;;;;;5056628;28;20021;-72
2020/12/05 12:03:16;;;;;;;72.03;25.75;;;3.40;73.30;;;;;;5056851;28;20063;-71
2020/12/05 12:05:41;;;;;;;68.93;26.73;;;3.40;73.30;;;;;;5056472;28;20021;-71
2020/12/05 12:08:07;;;;;;;69.82;25.70;;;3.50;73.50;;;;;;5056676;28;20021;-73
2020/12/05 12:10:33;;;;;;;63.30;24.05;;;3.50;73.60;;;;;;5057312;28;20349;-72
2020/12/05 12:12:58;;;;;;;64.05;24.15;;;3.50;73.60;;;;;;5057339;28;20028;-71
2020/12/05 12:15:24;;;;;;;60.75;25.27;;;3.50;73.50;;;;;;5056692;28;20099;-72
2020/12/05 12:17:50;;;;;;;64.05;25.33;;;3.50;73.50;;;;;;5057126;28;20024;-71
2020/12/05 12:20:16;;;;;;;74.60;28.33;;;3.50;73.50;;;;;;5056527;28;20021;-71
2020/12/05 12:22:41;;;;;;;78.35;28.80;;;3.50;73.50;;;;;;5056279;28;20047;-71
2020/12/05 12:25:07;;;;;;;75.68;27.92;;;3.50;73.70;;;;;;5055700;28;20102;-73
2020/12/05 12:27:33;;;;;;;71.68;28.63;;;3.50;73.70;;;;;;5056068;28;20478;-71
2020/12/05 12:29:58;;;;;;;68.22;28.92;;;3.50;73.80;;;;;;5055014;28;20023;-72
2020/12/05 12:32:24;;;;;;;63.55;24.27;;;3.50;73.60;;;;;;5056386;28;20021;-71
2020/12/05 12:34:51;;;;;;;60.25;24.05;;;3.60;73.90;;;;;;5056510;28;20021;-71
2020/12/05 12:37:18;;;;;;;63.97;25.48;;;3.60;73.60;;;;;;5055859;28;20066;-72
2020/12/05 12:39:44;;;;;;;65.18;25.08;;;3.60;73.40;;;;;;5054735;28;20350;-71
2020/12/05 12:42:10;;;;;;;58.13;24.60;;;3.50;73.60;;;;;;5056148;28;20032;-72
2020/12/05 12:44:36;;;;;;;55.47;22.30;;;3.50;73.70;;;;;;5056127;28;20029;-71
2020/12/05 12:49:36;;;;;;;49.78;21.42;;;3.60;73.90;;;;;;5055575;28;20104;-72
2020/12/05 12:52:06;;;;;;;52.35;21.33;;;3.60;73.20;;;;;;5055769;28;20090;-72
2020/12/05 12:54:33;;;;;;;54.72;21.02;;;3.50;73.70;;;;;;5055845;28;20060;-72
2020/12/05 12:56:59;;;;;;;43.33;19.08;;;3.60;73.40;;;;;;5054384;28;20029;-71
2020/12/05 12:59:25;;;;;;;46.05;17.63;;;3.50;73.50;;;;;;5055988;28;20017;-71
2020/12/05 13:01:53;;;;;;;42.05;17.67;;;3.40;73.40;;;;;;5055441;28;20024;-72
2020/12/05 13:04:19;;;;;;;44.58;17.45;;;3.40;73.30;;;;;;5055668;28;20154;-70
2020/12/05 13:06:45;;;;;;;44.72;17.60;;;3.40;73.60;;;;;;5055357;28;20017;-73
2020/12/05 13:09:10;;;;;;;42.20;18.63;;;3.40;73.80;;;;;;5056162;28;20071;-73
2020/12/05 13:11:36;;;;;;;51.30;20.33;;;3.40;74.10;;;;;;5055020;28;20025;-72
2020/12/05 13:14:02;;;;;;;42.33;18.83;;;3.50;74.20;;;;;;5055935;28;20037;-72
2020/12/05 13:16:28;;;;;;;44.80;19.88;;;3.50;74.00;;;;;;5055905;28;20104;-72
2020/12/05 13:18:53;;;;;;;47.60;20.38;;;3.50;73.80;;;;;;5054101;28;20506;-71
2020/12/05 13:21:20;;;;;;;47.25;20.13;;;3.50;74.00;;;;;;5055689;28;20035;-72
2020/12/05 13:23:48;;;;;;;53.63;22.00;;;3.50;74.00;;;;;;5055368;28;20025;-71
2020/12/05 13:26:17;;;;;;;58.45;20.73;;;3.50;73.90;;;;;;5055297;28;20028;-72
2020/12/05 13:28:43;;;;;;;52.40;20.23;;;3.50;74.20;;;;;;5055382;28;20099;-70
2020/12/05 13:31:10;;;;;;;54.83;22.00;;;3.50;74.40;;;;;;5055276;28;20103;-70
2020/12/05 13:33:37;;;;;;;46.13;19.33;;;3.60;74.80;;;;;;5054730;28;20055;-71
2020/12/05 13:36:06;;;;;;;44.20;17.83;;;3.70;74.40;;;;;;5055291;28;20021;-69
2020/12/05 13:38:34;;;;;;;50.13;19.88;;;3.70;74.30;;;;;;5055906;28;20048;-71
2020/12/05 13:41:00;;;;;;;55.58;22.08;;;3.70;74.00;;;;;;5054967;28;20114;-72
2020/12/05 13:43:26;;;;;;;45.55;19.52;;;3.60;74.00;;;;;;5055515;28;20423;-72
2020/12/05 13:45:52;;;;;;;44.65;19.02;;;3.60;74.30;;;;;;5055127;28;20044;-72
2020/12/05 13:48:19;;;;;;;51.97;20.27;;;3.60;74.40;;;;;;5054134;28;20028;-72
2020/12/05 13:50:45;;;;;;;53.72;20.88;;;3.70;74.50;;;;;;5054751;28;20483;-73
2020/12/05 13:53:11;;;;;;;54.53;21.65;;;3.70;74.50;;;;;;5055144;28;20060;-71
2020/12/05 13:55:38;;;;;;;45.00;18.42;;;3.70;74.70;;;;;;5054879;28;20039;-73